createdAt,value
2017-11-15T00:00:41.456Z,0.00
2017-11-15T00:02:34.455Z,0.00
2017-11-15T00:03:34.506Z,0.00
2017-11-15T00:05:27.506Z,0.00
2017-11-15T00:06:27.543Z,0.00
2017-11-15T00:08:20.530Z,0.00
2017-11-15T00:09:20.582Z,0.00
2017-11-15T00:11:13.584Z,0.00
2017-11-15T00:12:13.623Z,0.00
2017-11-15T00:14:06.606Z,0.00
2017-11-15T00:15:06.660Z,0.00
2017-11-15T00:16:59.662Z,0.00
2017-11-15T00:17:59.698Z,0.00
2017-11-15T00:19:52.701Z,0.00
2017-11-15T00:20:52.740Z,0.00
2017-11-15T00:22:45.717Z,0.00
2017-11-15T00:23:45.778Z,0.00
2017-11-15T00:25:38.775Z,0.00
2017-11-15T00:26:38.818Z,0.00
2017-11-15T00:28:31.804Z,0.00
2017-11-15T00:29:31.867Z,0.00
2017-11-15T00:31:24.866Z,0.00
2017-11-15T00:32:24.902Z,0.00
2017-11-15T00:34:17.887Z,0.00
2017-11-15T00:35:17.941Z,0.00
2017-11-15T00:37:10.942Z,0.00
2017-11-15T00:38:10.978Z,0.00
2017-11-15T00:40:03.980Z,0.00
2017-11-15T00:41:04.015Z,0.00
2017-11-15T00:42:56.992Z,0.00
2017-11-15T00:43:57.053Z,0.00
2017-11-15T00:45:50.056Z,0.00
2017-11-15T00:46:50.093Z,0.00
2017-11-15T00:48:43.073Z,0.00
2017-11-15T00:49:43.130Z,0.00
2017-11-15T00:51:36.133Z,0.00
2017-11-15T00:52:36.174Z,0.00
2017-11-15T00:54:29.149Z,0.00
2017-11-15T00:55:29.207Z,0.00
2017-11-15T00:57:22.207Z,0.00
2017-11-15T00:58:22.247Z,0.00
2017-11-15T01:00:15.247Z,0.00
2017-11-15T01:01:15.282Z,0.00
2017-11-15T01:03:08.268Z,0.00
2017-11-15T01:04:08.324Z,0.00
2017-11-15T01:06:01.331Z,0.00
2017-11-15T01:07:01.369Z,0.00
2017-11-15T01:08:54.364Z,0.00
2017-11-15T01:09:54.410Z,0.00
2017-11-15T01:11:47.412Z,0.00
2017-11-15T01:12:47.451Z,0.00
2017-11-15T01:14:40.939Z,0.00
2017-11-15T01:15:40.997Z,0.00
2017-11-15T01:17:33.997Z,0.00
2017-11-15T01:18:34.037Z,0.00
2017-11-15T01:20:27.040Z,0.00
2017-11-15T01:21:27.078Z,0.00
2017-11-15T01:23:20.064Z,0.00
2017-11-15T01:24:20.119Z,0.00
2017-11-15T01:26:13.123Z,0.00
2017-11-15T01:27:13.160Z,0.00
2017-11-15T01:29:06.144Z,0.00
2017-11-15T01:30:06.196Z,0.00
2017-11-15T01:31:59.198Z,0.00
2017-11-15T01:32:59.238Z,0.00
2017-11-15T01:34:52.223Z,0.00
2017-11-15T01:35:52.281Z,0.00
2017-11-15T01:37:45.283Z,0.00
2017-11-15T01:38:45.319Z,0.00
2017-11-15T01:40:38.326Z,0.00
2017-11-15T01:41:38.364Z,0.00
2017-11-15T01:43:31.353Z,0.00
2017-11-15T01:44:31.407Z,0.00
2017-11-15T01:46:24.406Z,0.00
2017-11-15T01:47:24.443Z,0.00
2017-11-15T01:49:17.423Z,0.00
2017-11-15T01:50:17.480Z,0.00
2017-11-15T01:52:10.525Z,0.00
2017-11-15T01:53:10.517Z,0.00
2017-11-15T01:55:03.498Z,0.00
2017-11-15T01:56:03.556Z,0.00
2017-11-15T01:57:56.556Z,0.00
2017-11-15T01:58:56.593Z,0.00
2017-11-15T02:00:49.593Z,0.00
2017-11-15T02:01:49.629Z,0.00
2017-11-15T02:03:42.616Z,0.00
2017-11-15T02:04:42.672Z,0.00
2017-11-15T02:06:35.677Z,0.00
2017-11-15T02:07:35.713Z,0.00
2017-11-15T02:09:28.701Z,0.00
2017-11-15T02:10:28.753Z,0.00
2017-11-15T02:12:21.755Z,0.00
2017-11-15T02:13:21.792Z,0.00
2017-11-15T02:15:15.284Z,0.00
2017-11-15T02:16:15.339Z,0.00
2017-11-15T02:18:08.345Z,0.00
2017-11-15T02:19:08.383Z,0.00
2017-11-15T02:21:01.384Z,0.00
2017-11-15T02:22:01.421Z,0.00
2017-11-15T02:23:54.405Z,0.00
2017-11-15T02:24:54.461Z,0.00
2017-11-15T02:26:47.460Z,0.00
2017-11-15T02:27:47.499Z,0.00
2017-11-15T02:29:40.495Z,0.00
2017-11-15T02:30:40.538Z,0.00
2017-11-15T02:32:33.540Z,0.00
2017-11-15T02:33:33.578Z,0.00
2017-11-15T02:35:26.563Z,0.00
2017-11-15T02:36:26.617Z,0.00
2017-11-15T02:38:19.620Z,0.00
2017-11-15T02:39:19.656Z,0.00
2017-11-15T02:41:12.661Z,0.00
2017-11-15T02:42:12.697Z,0.00
2017-11-15T02:44:05.684Z,0.00
2017-11-15T02:45:05.737Z,0.00
2017-11-15T02:46:58.741Z,0.00
2017-11-15T02:47:58.778Z,0.00
2017-11-15T02:49:51.764Z,0.00
2017-11-15T02:50:51.820Z,0.00
2017-11-15T02:52:44.819Z,0.00
2017-11-15T02:53:44.855Z,0.00
2017-11-15T02:55:37.837Z,0.00
2017-11-15T02:56:37.902Z,0.00
2017-11-15T02:58:30.904Z,0.00
2017-11-15T02:59:33.914Z,0.00
2017-11-15T03:01:23.945Z,0.00
2017-11-15T03:02:23.984Z,0.00
2017-11-15T03:04:16.968Z,0.00
2017-11-15T03:05:17.024Z,0.00
2017-11-15T03:07:10.025Z,0.00
2017-11-15T03:08:10.062Z,0.00
2017-11-15T03:10:03.048Z,0.00
2017-11-15T03:11:03.110Z,0.00
2017-11-15T03:12:56.109Z,0.00
2017-11-15T03:13:56.145Z,0.00
2017-11-15T03:15:49.123Z,0.00
2017-11-15T03:16:49.186Z,0.00
2017-11-15T03:18:42.183Z,0.00
2017-11-15T03:19:42.226Z,0.00
2017-11-15T03:21:35.225Z,0.00
2017-11-15T03:22:35.261Z,0.00
2017-11-15T03:24:28.246Z,0.00
2017-11-15T03:25:28.303Z,0.00
2017-11-15T03:27:21.304Z,0.00
2017-11-15T03:28:21.343Z,0.00
2017-11-15T03:30:14.327Z,0.00
2017-11-15T03:31:14.383Z,0.00
2017-11-15T03:33:07.388Z,0.00
2017-11-15T03:34:07.420Z,0.00
2017-11-15T03:36:00.400Z,0.00
2017-11-15T03:37:00.463Z,0.00
2017-11-15T03:38:53.459Z,0.00
2017-11-15T03:39:53.497Z,0.00
2017-11-15T03:41:46.498Z,0.00
2017-11-15T03:42:46.537Z,0.00
2017-11-15T03:44:39.517Z,0.00
2017-11-15T03:45:39.574Z,0.00
2017-11-15T03:47:32.574Z,0.00
2017-11-15T03:48:32.615Z,0.00
2017-11-15T03:50:25.594Z,0.00
2017-11-15T03:51:25.652Z,0.00
2017-11-15T03:53:18.650Z,0.00
2017-11-15T03:54:18.687Z,0.00
2017-11-15T03:56:11.676Z,0.00
2017-11-15T03:57:11.733Z,0.00
2017-11-15T03:59:04.734Z,0.00
2017-11-15T04:00:04.770Z,0.00
2017-11-15T04:01:57.772Z,0.00
2017-11-15T04:02:57.811Z,0.00
2017-11-15T04:04:50.794Z,0.00
2017-11-15T04:05:50.848Z,0.00
2017-11-15T04:07:43.850Z,0.00
2017-11-15T04:08:43.887Z,0.00
2017-11-15T04:10:36.868Z,0.00
2017-11-15T04:11:36.931Z,0.00
2017-11-15T04:13:29.932Z,0.00
2017-11-15T04:14:29.971Z,0.00
2017-11-15T04:16:22.954Z,0.00
2017-11-15T04:17:23.014Z,0.00
2017-11-15T04:19:16.011Z,0.00
2017-11-15T04:20:16.048Z,0.00
2017-11-15T04:22:09.047Z,0.00
2017-11-15T04:23:09.086Z,0.00
2017-11-15T04:25:02.076Z,0.00
2017-11-15T04:26:02.124Z,0.00
2017-11-15T04:27:55.132Z,0.00
2017-11-15T04:28:55.175Z,0.00
2017-11-15T04:30:48.150Z,0.00
2017-11-15T04:31:48.203Z,0.00
2017-11-15T04:33:41.204Z,0.00
2017-11-15T04:34:41.241Z,0.00
2017-11-15T04:36:34.228Z,0.00
2017-11-15T04:37:34.284Z,0.00
2017-11-15T04:39:27.291Z,0.00
2017-11-15T04:40:27.330Z,0.00
2017-11-15T04:42:20.333Z,0.00
2017-11-15T04:43:20.371Z,0.00
2017-11-15T04:45:13.356Z,0.00
2017-11-15T04:46:13.410Z,0.00
2017-11-15T04:48:06.408Z,0.00
2017-11-15T04:49:06.451Z,0.00
2017-11-15T04:50:59.426Z,0.00
2017-11-15T04:51:59.483Z,0.00
2017-11-15T04:53:52.483Z,0.00
2017-11-15T04:54:52.521Z,0.00
2017-11-15T04:56:45.503Z,0.00
2017-11-15T04:57:45.565Z,0.00
2017-11-15T04:59:38.563Z,0.00
2017-11-15T05:00:38.600Z,0.00
2017-11-15T05:02:31.602Z,0.00
2017-11-15T05:03:31.640Z,0.00
2017-11-15T05:05:24.621Z,0.00
2017-11-15T05:06:24.679Z,0.00
2017-11-15T05:08:17.677Z,0.00
2017-11-15T05:09:17.716Z,0.00
2017-11-15T05:11:10.701Z,0.00
2017-11-15T05:12:10.751Z,0.00
2017-11-15T05:14:03.753Z,0.00
2017-11-15T05:15:03.791Z,0.00
2017-11-15T05:16:56.795Z,0.00
2017-11-15T05:17:56.828Z,0.00
2017-11-15T05:19:49.828Z,0.00
2017-11-15T05:20:49.865Z,0.00
2017-11-15T05:22:42.871Z,0.00
2017-11-15T05:23:42.902Z,0.00
2017-11-15T05:25:35.883Z,0.00
2017-11-15T05:26:35.939Z,0.00
2017-11-15T05:28:28.947Z,0.00
2017-11-15T05:29:28.985Z,0.00
2017-11-15T05:31:21.971Z,0.00
2017-11-15T05:32:22.024Z,0.00
2017-11-15T05:34:15.029Z,0.00
2017-11-15T05:35:15.070Z,0.00
2017-11-15T05:37:08.045Z,0.00
2017-11-15T05:38:08.103Z,0.00
2017-11-15T05:40:01.106Z,0.00
2017-11-15T05:41:01.145Z,0.00
2017-11-15T05:42:54.145Z,0.00
2017-11-15T05:43:54.186Z,0.00
2017-11-15T05:45:47.165Z,0.00
2017-11-15T05:46:47.229Z,0.00
2017-11-15T05:48:40.223Z,0.00
2017-11-15T05:49:40.260Z,0.00
2017-11-15T05:51:33.246Z,0.00
2017-11-15T05:52:33.306Z,0.00
2017-11-15T05:54:26.312Z,0.00
2017-11-15T05:55:26.341Z,0.00
2017-11-15T05:57:19.342Z,0.00
2017-11-15T05:58:19.380Z,0.00
2017-11-15T06:00:12.378Z,0.00
2017-11-15T06:01:12.416Z,0.00
2017-11-15T06:03:05.419Z,0.00
2017-11-15T06:04:05.457Z,0.00
2017-11-15T06:05:58.436Z,0.00
2017-11-15T06:06:58.494Z,0.00
2017-11-15T06:08:51.501Z,0.00
2017-11-15T06:09:51.590Z,0.00
2017-11-15T06:11:44.559Z,0.00
2017-11-15T06:12:44.635Z,0.00
2017-11-15T06:14:38.146Z,0.00
2017-11-15T06:15:38.222Z,0.00
2017-11-15T06:17:31.179Z,0.00
2017-11-15T06:18:31.426Z,0.00
2017-11-15T06:20:24.251Z,0.00
2017-11-15T06:21:24.196Z,0.00
2017-11-15T06:23:17.248Z,4.00
2017-11-15T06:24:17.239Z,4.00
2017-11-15T06:26:10.268Z,4.00
2017-11-15T06:27:10.303Z,4.00
2017-11-15T06:29:03.354Z,4.00
2017-11-15T06:30:03.360Z,8.00
2017-11-15T06:31:56.343Z,8.00
2017-11-15T06:32:56.466Z,8.00
2017-11-15T06:34:49.426Z,12.00
2017-11-15T06:35:49.409Z,8.00
2017-11-15T06:37:42.480Z,12.00
2017-11-15T06:38:42.437Z,16.00
2017-11-15T06:40:35.414Z,20.00
2017-11-15T06:41:35.472Z,20.00
2017-11-15T06:43:28.473Z,28.00
2017-11-15T06:44:28.512Z,32.00
2017-11-15T06:46:21.496Z,36.00
2017-11-15T06:47:21.549Z,44.00
2017-11-15T06:49:14.556Z,48.00
2017-11-15T06:50:14.597Z,60.00
2017-11-15T06:52:07.586Z,72.00
2017-11-15T06:53:07.637Z,80.00
2017-11-15T06:55:00.640Z,84.00
2017-11-15T06:56:00.678Z,104.00
2017-11-15T06:57:53.679Z,116.00
2017-11-15T06:58:53.718Z,132.00
2017-11-15T07:00:46.696Z,160.00
2017-11-15T07:01:46.753Z,180.00
2017-11-15T07:03:39.757Z,192.00
2017-11-15T07:04:39.793Z,204.00
2017-11-15T07:06:32.781Z,248.00
2017-11-15T07:07:32.841Z,240.00
2017-11-15T07:09:25.842Z,260.00
2017-11-15T07:10:25.881Z,280.00
2017-11-15T07:12:18.863Z,296.00
2017-11-15T07:13:18.921Z,336.00
2017-11-15T07:15:12.428Z,352.00
2017-11-15T07:16:12.465Z,372.00
2017-11-15T07:18:05.465Z,388.00
2017-11-15T07:19:05.503Z,400.00
2017-11-15T07:20:58.489Z,436.00
2017-11-15T07:21:58.546Z,420.00
2017-11-15T07:23:51.554Z,456.00
2017-11-15T07:24:51.593Z,504.00
2017-11-15T07:26:44.577Z,548.00
2017-11-15T07:27:44.632Z,600.00
2017-11-15T07:29:37.630Z,648.00
2017-11-15T07:30:37.673Z,716.00
2017-11-15T07:32:30.652Z,804.00
2017-11-15T07:33:30.705Z,744.00
2017-11-15T07:35:23.705Z,716.00
2017-11-15T07:36:23.743Z,772.00
2017-11-15T07:38:16.745Z,752.00
2017-11-15T07:39:16.786Z,788.00
2017-11-15T07:41:09.768Z,832.00
2017-11-15T07:42:09.823Z,832.00
2017-11-15T07:44:02.825Z,836.00
2017-11-15T07:45:02.862Z,824.00
2017-11-15T07:46:55.846Z,724.00
2017-11-15T07:47:55.902Z,736.00
2017-11-15T07:49:48.899Z,772.00
2017-11-15T07:50:48.940Z,784.00
2017-11-15T07:52:41.917Z,824.00
2017-11-15T07:53:41.980Z,880.00
2017-11-15T07:55:34.978Z,948.00
2017-11-15T07:56:35.014Z,1032.00
2017-11-15T07:58:28.016Z,1112.00
2017-11-15T07:59:28.055Z,1120.00
2017-11-15T08:01:21.038Z,1072.00
2017-11-15T08:02:21.092Z,1120.00
2017-11-15T08:04:14.101Z,1124.00
2017-11-15T08:05:14.128Z,1148.00
2017-11-15T08:07:07.114Z,1008.00
2017-11-15T08:08:07.168Z,984.00
2017-11-15T08:10:00.209Z,884.00
2017-11-15T08:11:00.207Z,856.00
2017-11-15T08:12:53.191Z,876.00
2017-11-15T08:13:53.245Z,920.00
2017-11-15T08:15:46.760Z,952.00
2017-11-15T08:16:46.791Z,924.00
2017-11-15T08:18:39.796Z,892.00
2017-11-15T08:19:39.828Z,908.00
2017-11-15T08:21:32.814Z,968.00
2017-11-15T08:22:32.869Z,968.00
2017-11-15T08:24:25.911Z,936.00
2017-11-15T08:25:25.910Z,1132.00
2017-11-15T08:27:18.897Z,1260.00
2017-11-15T08:28:18.957Z,1352.00
2017-11-15T08:30:11.959Z,1364.00
2017-11-15T08:31:11.995Z,1280.00
2017-11-15T08:33:04.981Z,1396.00
2017-11-15T08:34:05.039Z,1336.00
2017-11-15T08:35:58.036Z,1460.00
2017-11-15T08:36:58.076Z,1420.00
2017-11-15T08:38:51.075Z,1564.00
2017-11-15T08:39:51.112Z,1780.00
2017-11-15T08:41:44.093Z,1668.00
2017-11-15T08:42:44.152Z,1868.00
2017-11-15T08:44:37.159Z,2056.00
2017-11-15T08:45:37.201Z,2148.00
2017-11-15T08:47:30.177Z,2168.00
2017-11-15T08:48:30.234Z,2292.00
2017-11-15T08:50:23.236Z,2376.00
2017-11-15T08:51:23.275Z,2636.00
2017-11-15T08:53:16.260Z,2764.00
2017-11-15T08:54:16.315Z,2684.00
2017-11-15T08:56:09.313Z,2560.00
2017-11-15T08:57:09.354Z,2540.00
2017-11-15T08:59:02.354Z,2532.00
2017-11-15T09:00:02.392Z,2416.00
2017-11-15T09:01:55.403Z,2392.00
2017-11-15T09:02:55.444Z,2540.00
2017-11-15T09:04:48.447Z,2504.00
2017-11-15T09:05:48.484Z,2472.00
2017-11-15T09:07:41.463Z,2612.00
2017-11-15T09:08:41.522Z,2732.00
2017-11-15T09:10:34.527Z,2784.00
2017-11-15T09:11:34.564Z,2720.00
2017-11-15T09:13:27.550Z,2968.00
2017-11-15T09:14:27.606Z,2916.00
2017-11-15T09:16:20.608Z,3040.00
2017-11-15T09:17:20.647Z,3060.00
2017-11-15T09:19:13.627Z,3088.00
2017-11-15T09:20:13.688Z,3148.00
2017-11-15T09:22:06.694Z,3508.00
2017-11-15T09:23:06.733Z,3468.00
2017-11-15T09:24:59.734Z,3512.00
2017-11-15T09:25:59.774Z,3336.00
2017-11-15T09:27:52.758Z,3356.00
2017-11-15T09:28:52.814Z,3364.00
2017-11-15T09:30:45.820Z,3768.00
2017-11-15T09:31:45.863Z,3896.00
2017-11-15T09:33:38.840Z,4444.00
2017-11-15T09:34:38.895Z,4416.00
2017-11-15T09:36:31.897Z,3972.00
2017-11-15T09:37:31.934Z,3992.00
2017-11-15T09:39:24.917Z,3936.00
2017-11-15T09:40:24.975Z,3956.00
2017-11-15T09:42:17.979Z,4052.00
2017-11-15T09:43:18.017Z,4288.00
2017-11-15T09:45:11.020Z,4208.00
2017-11-15T09:46:11.060Z,4200.00
2017-11-15T09:48:04.044Z,4516.00
2017-11-15T09:49:04.099Z,4328.00
2017-11-15T09:50:57.102Z,4176.00
2017-11-15T09:51:57.141Z,3972.00
2017-11-15T09:53:50.129Z,4636.00
2017-11-15T09:54:50.182Z,4780.00
2017-11-15T09:56:43.185Z,4428.00
2017-11-15T09:57:43.223Z,4584.00
2017-11-15T09:59:36.209Z,4568.00
2017-11-15T10:00:36.266Z,4920.00
2017-11-15T10:02:29.272Z,4356.00
2017-11-15T10:03:29.312Z,4068.00
2017-11-15T10:05:22.316Z,4348.00
2017-11-15T10:06:22.357Z,4232.00
2017-11-15T10:08:15.343Z,4272.00
2017-11-15T10:09:15.399Z,4528.00
2017-11-15T10:11:08.401Z,4156.00
2017-11-15T10:12:08.439Z,3912.00
2017-11-15T10:14:01.426Z,3824.00
2017-11-15T10:15:01.486Z,4204.00
2017-11-15T10:16:54.483Z,4600.00
2017-11-15T10:17:54.522Z,5076.00
2017-11-15T10:19:47.507Z,5148.00
2017-11-15T10:20:47.566Z,5232.00
2017-11-15T10:22:40.572Z,5424.00
2017-11-15T10:23:40.611Z,5164.00
2017-11-15T10:25:33.613Z,4836.00
2017-11-15T10:26:33.652Z,4516.00
2017-11-15T10:28:26.638Z,4220.00
2017-11-15T10:29:26.692Z,4028.00
2017-11-15T10:31:19.698Z,4604.00
2017-11-15T10:32:19.737Z,4700.00
2017-11-15T10:34:12.724Z,5032.00
2017-11-15T10:35:12.777Z,4608.00
2017-11-15T10:37:05.784Z,5632.00
2017-11-15T10:38:05.822Z,5752.00
2017-11-15T10:39:58.808Z,4676.00
2017-11-15T10:40:58.868Z,4720.00
2017-11-15T10:42:51.870Z,5128.00
2017-11-15T10:43:51.910Z,5288.00
2017-11-15T10:45:44.913Z,6020.00
2017-11-15T10:46:44.949Z,5896.00
2017-11-15T10:48:37.933Z,6060.00
2017-11-15T10:49:37.992Z,6044.00
2017-11-15T10:51:31.018Z,5860.00
2017-11-15T10:52:31.034Z,5896.00
2017-11-15T10:54:24.020Z,5912.00
2017-11-15T10:55:24.081Z,5680.00
2017-11-15T10:57:17.084Z,4840.00
2017-11-15T10:58:17.121Z,4736.00
2017-11-15T11:00:10.114Z,4156.00
2017-11-15T11:01:10.176Z,4480.00
2017-11-15T11:03:03.182Z,4800.00
2017-11-15T11:04:03.218Z,4316.00
2017-11-15T11:05:56.224Z,4696.00
2017-11-15T11:06:56.264Z,4496.00
2017-11-15T11:08:49.247Z,4464.00
2017-11-15T11:09:49.308Z,4512.00
2017-11-15T11:11:42.315Z,4800.00
2017-11-15T11:12:42.355Z,4464.00
2017-11-15T11:14:35.341Z,3580.00
2017-11-15T11:15:35.398Z,3676.00
2017-11-15T11:17:28.402Z,3540.00
2017-11-15T11:18:28.441Z,3248.00
2017-11-15T11:20:21.430Z,3544.00
2017-11-15T11:21:21.483Z,3864.00
2017-11-15T11:23:14.484Z,3940.00
2017-11-15T11:24:14.525Z,3888.00
2017-11-15T11:26:07.529Z,3796.00
2017-11-15T11:27:07.566Z,3628.00
2017-11-15T11:29:00.551Z,3608.00
2017-11-15T11:30:00.609Z,3896.00
2017-11-15T11:31:53.612Z,4064.00
2017-11-15T11:32:53.659Z,3808.00
2017-11-15T11:34:46.640Z,3912.00
2017-11-15T11:35:46.697Z,3552.00
2017-11-15T11:37:39.700Z,3400.00
2017-11-15T11:38:39.742Z,3272.00
2017-11-15T11:40:32.731Z,3176.00
2017-11-15T11:41:32.783Z,3368.00
2017-11-15T11:43:25.811Z,3656.00
2017-11-15T11:44:25.833Z,3304.00
2017-11-15T11:46:18.834Z,3504.00
2017-11-15T11:47:18.872Z,3216.00
2017-11-15T11:49:11.861Z,3484.00
2017-11-15T11:50:11.921Z,3344.00
2017-11-15T11:52:04.924Z,3268.00
2017-11-15T11:53:04.964Z,3364.00
2017-11-15T11:54:57.953Z,3448.00
2017-11-15T11:55:58.018Z,3500.00
2017-11-15T11:57:51.016Z,3340.00
2017-11-15T11:58:51.054Z,3148.00
2017-11-15T12:00:44.034Z,3204.00
2017-11-15T12:01:44.096Z,3432.00
2017-11-15T12:03:37.097Z,3260.00
2017-11-15T12:04:37.136Z,3276.00
2017-11-15T12:06:30.140Z,3352.00
2017-11-15T12:07:30.177Z,3072.00
2017-11-15T12:09:23.161Z,3268.00
2017-11-15T12:10:23.217Z,3320.00
2017-11-15T12:12:16.223Z,2720.00
2017-11-15T12:13:16.261Z,2684.00
2017-11-15T12:15:09.753Z,2948.00
2017-11-15T12:16:09.810Z,2864.00
2017-11-15T12:18:02.811Z,2752.00
2017-11-15T12:19:02.851Z,2788.00
2017-11-15T12:20:55.838Z,2480.00
2017-11-15T12:21:55.899Z,2376.00
2017-11-15T12:23:48.903Z,2496.00
2017-11-15T12:24:48.943Z,2408.00
2017-11-15T12:26:41.950Z,2676.00
2017-11-15T12:27:41.995Z,2752.00
2017-11-15T12:29:34.977Z,3184.00
2017-11-15T12:30:35.034Z,2928.00
2017-11-15T12:32:28.041Z,2616.00
2017-11-15T12:33:28.074Z,2280.00
2017-11-15T12:35:21.066Z,2360.00
2017-11-15T12:36:21.118Z,2348.00
2017-11-15T12:38:14.124Z,2576.00
2017-11-15T12:39:14.158Z,2552.00
2017-11-15T12:41:07.146Z,2580.00
2017-11-15T12:42:07.215Z,2648.00
2017-11-15T12:44:00.212Z,2448.00
2017-11-15T12:45:00.250Z,2432.00
2017-11-15T12:46:53.253Z,2288.00
2017-11-15T12:47:53.294Z,2668.00
2017-11-15T12:49:46.284Z,2728.00
2017-11-15T12:50:46.342Z,2520.00
2017-11-15T12:52:39.347Z,2740.00
2017-11-15T12:53:39.386Z,2528.00
2017-11-15T12:55:32.373Z,2652.00
2017-11-15T12:56:32.441Z,2720.00
2017-11-15T12:58:25.437Z,2828.00
2017-11-15T12:59:25.478Z,2600.00
2017-11-15T13:01:18.464Z,3156.00
2017-11-15T13:02:18.520Z,3256.00
2017-11-15T13:04:11.528Z,3328.00
2017-11-15T13:05:11.564Z,3404.00
2017-11-15T13:07:04.571Z,3300.00
2017-11-15T13:08:04.612Z,3172.00
2017-11-15T13:09:57.597Z,3176.00
2017-11-15T13:10:57.653Z,2676.00
2017-11-15T13:12:50.659Z,2956.00
2017-11-15T13:13:50.702Z,2892.00
2017-11-15T13:15:44.193Z,2532.00
2017-11-15T13:16:44.250Z,2660.00
2017-11-15T13:18:37.252Z,2812.00
2017-11-15T13:19:37.293Z,2700.00
2017-11-15T13:21:30.277Z,2544.00
2017-11-15T13:22:30.333Z,2612.00
2017-11-15T13:24:23.351Z,2816.00
2017-11-15T13:25:23.374Z,2832.00
2017-11-15T13:27:16.380Z,2592.00
2017-11-15T13:28:16.423Z,2628.00
2017-11-15T13:30:09.401Z,2684.00
2017-11-15T13:31:09.457Z,2716.00
2017-11-15T13:33:02.459Z,1940.00
2017-11-15T13:34:02.500Z,2704.00
2017-11-15T13:35:55.488Z,2456.00
2017-11-15T13:36:55.541Z,2864.00
2017-11-15T13:38:48.544Z,2304.00
2017-11-15T13:39:48.582Z,2400.00
2017-11-15T13:41:41.568Z,2192.00
2017-11-15T13:42:41.625Z,2396.00
2017-11-15T13:44:34.631Z,2224.00
2017-11-15T13:45:34.671Z,2092.00
2017-11-15T13:47:27.673Z,2164.00
2017-11-15T13:48:27.714Z,1860.00
2017-11-15T13:50:20.698Z,2148.00
2017-11-15T13:51:20.753Z,1772.00
2017-11-15T13:53:13.758Z,2704.00
2017-11-15T13:54:13.793Z,2424.00
2017-11-15T13:56:06.785Z,1712.00
2017-11-15T13:57:06.835Z,1888.00
2017-11-15T13:58:59.843Z,1908.00
2017-11-15T13:59:59.884Z,2532.00
2017-11-15T14:01:52.869Z,2488.00
2017-11-15T14:02:52.922Z,2616.00
2017-11-15T14:04:45.946Z,2540.00
2017-11-15T14:05:45.987Z,2520.00
2017-11-15T14:07:39.007Z,3008.00
2017-11-15T14:08:39.047Z,3060.00
2017-11-15T14:10:32.027Z,3012.00
2017-11-15T14:11:32.088Z,2852.00
2017-11-15T14:13:25.089Z,2780.00
2017-11-15T14:14:25.128Z,2492.00
2017-11-15T14:16:18.109Z,2488.00
2017-11-15T14:17:18.170Z,2528.00
2017-11-15T14:19:11.176Z,2112.00
2017-11-15T14:20:11.215Z,2300.00
2017-11-15T14:22:04.210Z,2320.00
2017-11-15T14:23:04.259Z,2056.00
2017-11-15T14:24:57.275Z,1832.00
2017-11-15T14:25:57.312Z,1852.00
2017-11-15T14:27:50.322Z,1760.00
2017-11-15T14:28:50.362Z,1740.00
2017-11-15T14:30:43.357Z,1828.00
2017-11-15T14:31:43.417Z,1620.00
2017-11-15T14:33:36.423Z,1808.00
2017-11-15T14:34:36.458Z,1920.00
2017-11-15T14:36:29.448Z,1836.00
2017-11-15T14:37:29.517Z,1672.00
2017-11-15T14:39:22.512Z,1608.00
2017-11-15T14:40:22.565Z,1460.00
2017-11-15T14:42:15.535Z,1588.00
2017-11-15T14:43:15.593Z,1492.00
2017-11-15T14:45:08.600Z,1556.00
2017-11-15T14:46:08.636Z,1376.00
2017-11-15T14:48:01.639Z,1276.00
2017-11-15T14:49:01.683Z,1388.00
2017-11-15T14:50:54.659Z,1092.00
2017-11-15T14:51:54.720Z,1136.00
2017-11-15T14:53:47.727Z,1024.00
2017-11-15T14:54:47.791Z,948.00
2017-11-15T14:56:40.748Z,920.00
2017-11-15T14:57:40.817Z,952.00
2017-11-15T14:59:33.808Z,784.00
2017-11-15T15:00:33.847Z,844.00
2017-11-15T15:02:26.833Z,704.00
2017-11-15T15:03:26.895Z,664.00
2017-11-15T15:05:19.892Z,532.00
2017-11-15T15:06:19.959Z,488.00
2017-11-15T15:08:13.026Z,468.00
2017-11-15T15:09:13.027Z,488.00
2017-11-15T15:11:06.010Z,404.00
2017-11-15T15:12:06.043Z,392.00
2017-11-15T15:13:59.115Z,416.00
2017-11-15T15:14:59.112Z,392.00
2017-11-15T15:16:52.095Z,356.00
2017-11-15T15:17:52.151Z,316.00
2017-11-15T15:19:45.110Z,276.00
2017-11-15T15:20:45.155Z,300.00
2017-11-15T15:22:38.632Z,272.00
2017-11-15T15:23:38.692Z,232.00
2017-11-15T15:25:31.695Z,212.00
2017-11-15T15:26:31.734Z,204.00
2017-11-15T15:28:24.739Z,188.00
2017-11-15T15:29:24.776Z,184.00
2017-11-15T15:31:17.759Z,148.00
2017-11-15T15:32:17.817Z,144.00
2017-11-15T15:34:10.821Z,128.00
2017-11-15T15:35:10.861Z,108.00
2017-11-15T15:37:03.846Z,96.00
2017-11-15T15:38:03.907Z,84.00
2017-11-15T15:39:56.921Z,68.00
2017-11-15T15:40:56.941Z,64.00
2017-11-15T15:42:49.953Z,60.00
2017-11-15T15:43:49.991Z,52.00
2017-11-15T15:45:42.987Z,44.00
2017-11-15T15:46:43.028Z,40.00
2017-11-15T15:48:36.048Z,32.00
2017-11-15T15:49:36.073Z,28.00
2017-11-15T15:51:29.565Z,24.00
2017-11-15T15:52:29.631Z,24.00
2017-11-15T15:54:22.629Z,20.00
2017-11-15T15:55:22.674Z,16.00
2017-11-15T15:57:15.675Z,8.00
2017-11-15T15:58:15.704Z,8.00
2017-11-15T16:00:08.706Z,8.00
2017-11-15T16:01:08.761Z,4.00
2017-11-15T16:03:01.736Z,4.00
2017-11-15T16:04:01.796Z,4.00
2017-11-15T16:05:54.802Z,0.00
2017-11-15T16:06:54.835Z,4.00
2017-11-15T16:08:47.853Z,0.00
2017-11-15T16:09:47.902Z,0.00
2017-11-15T16:11:40.865Z,0.00
2017-11-15T16:12:40.925Z,0.00
2017-11-15T16:14:33.935Z,0.00
2017-11-15T16:15:33.970Z,0.00
2017-11-15T16:17:26.952Z,0.00
2017-11-15T16:18:27.012Z,0.00
2017-11-15T16:20:20.013Z,0.00
2017-11-15T16:21:20.052Z,0.00
2017-11-15T16:23:13.038Z,0.00
2017-11-15T16:24:13.093Z,0.00
2017-11-15T16:26:06.098Z,0.00
2017-11-15T16:27:06.135Z,0.00
2017-11-15T16:28:59.138Z,0.00
2017-11-15T16:29:59.203Z,0.00
2017-11-15T16:31:52.163Z,0.00
2017-11-15T16:32:52.223Z,0.00
2017-11-15T16:34:45.225Z,0.00
2017-11-15T16:35:45.271Z,0.00
2017-11-15T16:37:38.250Z,0.00
2017-11-15T16:38:38.304Z,0.00
2017-11-15T16:40:31.309Z,0.00
2017-11-15T16:41:31.350Z,0.00
2017-11-15T16:43:24.339Z,0.00
2017-11-15T16:44:24.404Z,0.00
2017-11-15T16:46:17.411Z,0.00
2017-11-15T16:47:17.453Z,0.00
2017-11-15T16:49:10.494Z,0.00
2017-11-15T16:50:10.502Z,0.00
2017-11-15T16:52:03.491Z,0.00
2017-11-15T16:53:03.555Z,0.00
2017-11-15T16:54:56.574Z,0.00
2017-11-15T16:55:56.594Z,0.00
2017-11-15T16:57:49.594Z,0.00
2017-11-15T16:58:49.656Z,0.00
2017-11-15T17:00:42.663Z,0.00
2017-11-15T17:01:42.699Z,0.00
2017-11-15T17:03:35.691Z,0.00
2017-11-15T17:04:35.755Z,0.00
2017-11-15T17:06:28.753Z,0.00
2017-11-15T17:07:28.808Z,0.00
2017-11-15T17:09:22.680Z,0.00
2017-11-15T17:10:22.713Z,0.00
2017-11-15T17:12:15.690Z,0.00
2017-11-15T17:13:15.753Z,0.00
2017-11-15T17:15:10.297Z,0.00
2017-11-15T17:16:10.302Z,0.00
2017-11-15T17:18:03.284Z,0.00
2017-11-15T17:19:03.355Z,0.00
2017-11-15T17:20:56.350Z,0.00
2017-11-15T17:21:56.388Z,0.00
2017-11-15T17:23:49.377Z,0.00
2017-11-15T17:24:49.436Z,0.00
2017-11-15T17:26:42.443Z,0.00
2017-11-15T17:27:42.493Z,0.00
2017-11-15T17:29:35.487Z,0.00
2017-11-15T17:30:35.530Z,0.00
2017-11-15T17:32:28.517Z,0.00
2017-11-15T17:33:28.581Z,0.00
2017-11-15T17:35:21.588Z,0.00
2017-11-15T17:36:21.625Z,0.00
2017-11-15T17:38:14.629Z,0.00
2017-11-15T17:39:14.677Z,0.00
2017-11-15T17:41:07.680Z,0.00
2017-11-15T17:42:07.717Z,0.00
2017-11-15T17:44:00.706Z,0.00
2017-11-15T17:45:00.774Z,0.00
2017-11-15T17:46:53.794Z,0.00
2017-11-15T17:47:53.827Z,0.00
2017-11-15T17:49:46.838Z,0.00
2017-11-15T17:50:46.869Z,0.00
2017-11-15T17:52:39.889Z,0.00
2017-11-15T17:53:39.946Z,0.00
2017-11-15T17:55:32.973Z,0.00
2017-11-15T17:56:33.018Z,0.00
2017-11-15T17:58:25.986Z,0.00
2017-11-15T17:59:26.045Z,0.00
2017-11-15T18:01:19.047Z,0.00
2017-11-15T18:02:19.084Z,0.00
2017-11-15T18:04:12.087Z,0.00
2017-11-15T18:05:12.128Z,0.00
2017-11-15T18:07:05.129Z,0.00
2017-11-15T18:08:05.166Z,0.00
2017-11-15T18:09:58.181Z,0.00
2017-11-15T18:10:58.217Z,0.00
2017-11-15T18:12:51.213Z,0.00
2017-11-15T18:13:51.272Z,0.00
2017-11-15T18:15:44.791Z,0.00
2017-11-15T18:16:44.830Z,0.00
2017-11-15T18:18:37.804Z,0.00
2017-11-15T18:19:37.867Z,0.00
2017-11-15T18:21:30.869Z,0.00
2017-11-15T18:22:30.908Z,0.00